createdAt,value
2022-11-05T00:00:33.385Z,5.15
2022-11-05T00:03:18.798Z,4.35
2022-11-05T00:06:07.223Z,5.10
2022-11-05T00:09:07.142Z,4.45
2022-11-05T00:11:52.477Z,4.07
2022-11-05T00:14:38.063Z,4.60
2022-11-05T00:17:05.347Z,4.63
2022-11-05T00:19:32.326Z,4.50
2022-11-05T00:22:17.684Z,4.78
2022-11-05T00:25:03.354Z,4.97
2022-11-05T00:27:34.288Z,5.28
2022-11-05T00:30:04.856Z,5.15
2022-11-05T00:32:32.795Z,5.65
2022-11-05T00:35:00.039Z,5.45
2022-11-05T00:37:30.378Z,5.72
2022-11-05T00:39:57.274Z,5.15
2022-11-05T00:42:43.162Z,5.25
2022-11-05T00:45:10.507Z,4.35
2022-11-05T00:47:58.051Z,5.18
2022-11-05T00:50:25.128Z,4.50
2022-11-05T00:52:57.168Z,4.85
2022-11-05T00:55:51.725Z,5.22
2022-11-05T00:58:22.013Z,4.80
2022-11-05T01:00:52.032Z,4.70
2022-11-05T01:03:22.570Z,4.53
2022-11-05T01:05:53.419Z,5.72
2022-11-05T01:08:23.474Z,4.40
2022-11-05T01:10:56.921Z,4.18
2022-11-05T01:13:28.402Z,4.05
2022-11-05T01:15:56.888Z,4.00
2022-11-05T01:18:25.732Z,3.80
2022-11-05T01:20:52.836Z,4.10
2022-11-05T01:23:20.358Z,4.28
2022-11-05T01:25:47.802Z,3.88
2022-11-05T01:28:14.825Z,3.92
2022-11-05T01:30:43.305Z,4.32
2022-11-05T01:33:10.646Z,3.53
2022-11-05T01:35:39.851Z,3.38
2022-11-05T01:38:06.771Z,3.97
2022-11-05T01:40:33.758Z,3.08
2022-11-05T01:43:00.656Z,3.75
2022-11-05T01:45:29.142Z,4.03
2022-11-05T01:48:08.141Z,2.53
2022-11-05T01:50:50.730Z,3.90
2022-11-05T01:53:33.802Z,3.50
2022-11-05T01:56:16.318Z,3.15
2022-11-05T01:58:56.483Z,3.92
2022-11-05T02:01:24.392Z,3.70
2022-11-05T02:03:55.639Z,3.83
2022-11-05T02:06:22.589Z,3.33
2022-11-05T02:09:13.290Z,3.00
2022-11-05T02:11:40.376Z,2.65
2022-11-05T02:14:07.528Z,2.80
2022-11-05T02:17:01.108Z,3.03
2022-11-05T02:20:10.179Z,2.45
2022-11-05T02:23:08.477Z,2.47
2022-11-05T02:26:23.530Z,3.15
2022-11-05T02:29:43.033Z,2.22
2022-11-05T02:32:34.168Z,3.08
2022-11-05T02:35:22.733Z,3.58
2022-11-05T02:38:02.758Z,2.50
2022-11-05T02:40:45.729Z,2.60
2022-11-05T02:43:30.911Z,3.13
2022-11-05T02:46:06.306Z,3.58
2022-11-05T02:48:55.847Z,2.83
2022-11-05T02:51:34.929Z,2.88
2022-11-05T02:54:30.409Z,3.05
2022-11-05T02:56:59.363Z,3.45
2022-11-05T02:59:26.840Z,3.15
2022-11-05T03:01:54.773Z,2.88
2022-11-05T03:04:23.914Z,2.58
2022-11-05T03:07:19.543Z,2.75
2022-11-05T03:10:59.405Z,2.92
2022-11-05T03:14:01.929Z,2.45
2022-11-05T03:16:39.878Z,2.80
2022-11-05T03:20:15.284Z,2.80
2022-11-05T03:22:49.736Z,2.92
2022-11-05T03:25:24.527Z,2.83
2022-11-05T03:27:57.691Z,4.35
2022-11-05T03:30:25.784Z,3.30
2022-11-05T03:33:00.524Z,2.83
2022-11-05T03:35:34.037Z,3.15
2022-11-05T03:38:11.041Z,3.75
2022-11-05T03:40:40.710Z,3.60
2022-11-05T03:43:09.495Z,3.85
2022-11-05T03:45:52.505Z,3.50
2022-11-05T03:48:22.937Z,5.25
2022-11-05T03:51:06.833Z,3.30
2022-11-05T03:53:41.301Z,3.35
2022-11-05T03:56:25.176Z,4.03
2022-11-05T03:58:58.695Z,4.95
2022-11-05T04:01:27.700Z,5.20
2022-11-05T04:03:54.724Z,4.82
2022-11-05T04:06:40.000Z,5.10
2022-11-05T04:12:12.065Z,4.75
2022-11-05T04:14:39.610Z,4.90
2022-11-05T04:17:06.523Z,5.25
2022-11-05T04:20:01.819Z,4.80
2022-11-05T04:22:51.496Z,5.35
2022-11-05T04:25:20.157Z,5.03
2022-11-05T04:27:47.598Z,6.25
2022-11-05T04:30:19.543Z,5.00
2022-11-05T04:33:16.628Z,6.45
2022-11-05T04:35:48.838Z,5.28
2022-11-05T04:38:20.521Z,5.85
2022-11-05T04:40:48.434Z,5.38
2022-11-05T04:43:19.043Z,4.78
2022-11-05T04:45:46.492Z,5.30
2022-11-05T04:48:13.539Z,4.63
2022-11-05T04:50:40.634Z,5.38
2022-11-05T04:53:07.581Z,5.25
2022-11-05T04:55:34.626Z,4.95
2022-11-05T04:58:01.593Z,6.00
2022-11-05T05:00:28.708Z,5.63
2022-11-05T05:02:55.823Z,5.30
2022-11-05T05:05:23.191Z,4.57
2022-11-05T05:07:50.520Z,4.55
2022-11-05T05:10:17.948Z,7.05
2022-11-05T05:12:45.042Z,5.05
2022-11-05T05:15:11.994Z,4.38
2022-11-05T05:17:40.165Z,4.97
2022-11-05T05:20:26.098Z,5.00
2022-11-05T05:22:55.131Z,4.45
2022-11-05T05:25:22.811Z,4.30
2022-11-05T05:27:49.797Z,5.45
2022-11-05T05:30:17.200Z,5.25
2022-11-05T05:32:44.349Z,4.75
2022-11-05T05:35:11.405Z,4.28
2022-11-05T05:37:38.567Z,4.63
2022-11-05T05:40:06.044Z,4.13
2022-11-05T05:42:38.770Z,5.40
2022-11-05T05:47:36.089Z,4.72
2022-11-05T05:50:03.152Z,5.30
2022-11-05T05:52:30.023Z,4.28
2022-11-05T05:54:57.221Z,4.70
2022-11-05T05:57:24.125Z,5.45
2022-11-05T05:59:51.012Z,5.22
2022-11-05T06:02:19.127Z,5.50
2022-11-05T06:04:46.200Z,5.07
2022-11-05T06:07:13.094Z,5.25
2022-11-05T06:09:39.980Z,4.80
2022-11-05T06:12:07.251Z,6.07
2022-11-05T06:14:34.101Z,5.28
2022-11-05T06:17:06.858Z,5.80
2022-11-05T06:19:33.800Z,5.60
2022-11-05T06:22:00.772Z,5.45
2022-11-05T06:24:27.792Z,5.30
2022-11-05T06:26:54.762Z,5.38
2022-11-05T06:29:21.679Z,6.22
2022-11-05T06:31:48.580Z,5.03
2022-11-05T06:34:15.469Z,5.45
2022-11-05T06:36:43.001Z,6.18
2022-11-05T06:39:11.509Z,5.30
2022-11-05T06:42:03.931Z,6.43
2022-11-05T06:44:25.919Z,5.80
2022-11-05T06:46:52.820Z,5.75
2022-11-05T06:49:19.806Z,6.03
2022-11-05T06:51:48.850Z,6.35
2022-11-05T06:54:15.722Z,6.18
2022-11-05T06:56:42.619Z,5.43
2022-11-05T06:59:09.557Z,5.40
2022-11-05T07:01:37.480Z,6.88
2022-11-05T07:04:04.764Z,5.95
2022-11-05T07:06:36.842Z,5.68
2022-11-05T07:09:04.518Z,5.55
2022-11-05T07:11:31.537Z,5.85
2022-11-05T07:13:58.507Z,7.03
2022-11-05T07:16:25.530Z,4.93
2022-11-05T07:18:52.992Z,5.93
2022-11-05T07:21:19.969Z,5.68
2022-11-05T07:23:47.496Z,5.13
2022-11-05T07:26:14.456Z,5.35
2022-11-05T07:28:41.425Z,4.57
2022-11-05T07:31:08.463Z,5.07
2022-11-05T07:33:36.896Z,4.97
2022-11-05T07:36:04.187Z,3.95
2022-11-05T07:38:31.191Z,3.85
2022-11-05T07:41:00.306Z,3.85
2022-11-05T07:43:27.475Z,4.43
2022-11-05T07:45:54.360Z,3.60
2022-11-05T07:48:21.743Z,3.47
2022-11-05T07:50:53.125Z,3.30
2022-11-05T07:53:21.416Z,2.83
2022-11-05T07:55:50.416Z,3.58
2022-11-05T07:58:17.446Z,3.38
2022-11-05T08:00:44.639Z,2.58
2022-11-05T08:03:19.230Z,3.28
2022-11-05T08:05:48.009Z,2.97
2022-11-05T08:08:18.070Z,2.90
2022-11-05T08:10:45.704Z,2.50
2022-11-05T08:13:14.384Z,3.92
2022-11-05T08:15:42.788Z,2.85
2022-11-05T08:18:16.243Z,3.60
2022-11-05T08:20:44.693Z,3.95
2022-11-05T08:23:12.121Z,2.92
2022-11-05T08:25:39.884Z,2.83
2022-11-05T08:28:10.816Z,3.25
2022-11-05T08:30:37.786Z,2.90
2022-11-05T08:33:11.299Z,2.47
2022-11-05T08:35:39.441Z,2.85
2022-11-05T08:38:09.841Z,2.75
2022-11-05T08:40:37.731Z,2.78
2022-11-05T08:43:07.282Z,2.90
2022-11-05T08:45:38.198Z,2.85
2022-11-05T08:48:17.408Z,3.15
2022-11-05T08:50:46.865Z,2.78
2022-11-05T08:53:14.866Z,3.70
2022-11-05T08:55:42.412Z,3.58
2022-11-05T08:58:17.727Z,4.10
2022-11-05T09:00:50.272Z,3.83
2022-11-05T09:03:18.452Z,3.85
2022-11-05T09:05:45.413Z,3.63
2022-11-05T09:08:16.415Z,3.33
2022-11-05T09:10:45.196Z,3.58
2022-11-05T09:13:18.255Z,3.55
2022-11-05T09:15:47.417Z,3.55
2022-11-05T09:18:15.012Z,3.67
2022-11-05T09:20:42.592Z,3.28
2022-11-05T09:23:12.035Z,3.45
2022-11-05T09:25:39.262Z,3.53
2022-11-05T09:28:20.513Z,2.90
2022-11-05T09:30:52.744Z,3.20
2022-11-05T09:33:23.409Z,3.95
2022-11-05T09:35:50.691Z,3.80
2022-11-05T09:38:17.585Z,3.20
2022-11-05T09:41:01.891Z,3.17
2022-11-05T09:44:05.981Z,3.05
2022-11-05T09:47:08.128Z,3.22
2022-11-05T09:49:41.734Z,2.58
2022-11-05T09:52:19.071Z,2.75
2022-11-05T09:54:48.063Z,3.60
2022-11-05T09:57:22.260Z,2.83
2022-11-05T09:59:56.412Z,3.00
2022-11-05T10:02:34.045Z,3.22
2022-11-05T10:05:09.965Z,3.08
2022-11-05T10:07:48.238Z,4.32
2022-11-05T10:10:42.130Z,2.97
2022-11-05T10:13:30.043Z,3.33
2022-11-05T10:16:20.572Z,3.50
2022-11-05T10:19:24.685Z,3.72
2022-11-05T10:22:07.162Z,2.78
2022-11-05T10:24:34.764Z,3.65
2022-11-05T10:27:02.279Z,3.08
2022-11-05T10:29:32.567Z,3.80
2022-11-05T10:32:05.569Z,4.05
2022-11-05T10:34:36.213Z,3.85
2022-11-05T10:37:03.819Z,4.43
2022-11-05T10:39:33.389Z,2.97
2022-11-05T10:42:41.861Z,2.97
2022-11-05T10:45:29.657Z,3.13
2022-11-05T10:48:21.982Z,3.60
2022-11-05T10:50:49.171Z,3.05
2022-11-05T10:53:25.427Z,2.38
2022-11-05T10:55:54.186Z,3.53
2022-11-05T10:58:28.984Z,3.17
2022-11-05T11:00:56.016Z,3.00
2022-11-05T11:03:45.088Z,3.75
2022-11-05T11:06:28.476Z,3.17
2022-11-05T11:09:11.233Z,2.83
2022-11-05T11:11:41.773Z,3.15
2022-11-05T11:14:14.491Z,3.65
2022-11-05T11:16:47.447Z,3.47
2022-11-05T11:19:32.043Z,3.50
2022-11-05T11:22:05.162Z,3.50
2022-11-05T11:24:43.496Z,4.05
2022-11-05T11:27:16.118Z,5.45
2022-11-05T11:29:49.790Z,3.70
2022-11-05T11:32:20.613Z,3.60
2022-11-05T11:34:52.987Z,3.40
2022-11-05T11:37:29.041Z,4.20
2022-11-05T11:40:16.383Z,3.80
2022-11-05T11:42:49.517Z,2.97
2022-11-05T11:45:33.117Z,3.10
2022-11-05T11:48:05.721Z,3.83
2022-11-05T11:50:45.253Z,4.10
2022-11-05T11:53:21.473Z,4.80
2022-11-05T11:56:05.296Z,3.90
2022-11-05T11:58:51.181Z,3.72
2022-11-05T12:01:33.274Z,3.00
2022-11-05T12:04:23.181Z,3.05
2022-11-05T12:06:55.844Z,3.30
2022-11-05T12:09:31.889Z,3.20
2022-11-05T12:12:16.413Z,3.35
2022-11-05T12:15:45.498Z,2.53
2022-11-05T12:18:45.229Z,3.42
2022-11-05T12:21:52.065Z,2.80
2022-11-05T12:24:55.903Z,3.13
2022-11-05T12:27:51.379Z,3.88
2022-11-05T12:30:21.171Z,3.17
2022-11-05T12:33:12.655Z,2.90
2022-11-05T12:36:06.856Z,3.05
2022-11-05T12:39:08.474Z,3.00
2022-11-05T12:41:49.355Z,2.97
2022-11-05T12:44:57.201Z,3.75
2022-11-05T12:47:59.335Z,3.60
2022-11-05T12:50:43.937Z,3.45
2022-11-05T12:53:32.438Z,2.65
2022-11-05T12:56:06.509Z,3.00
2022-11-05T12:58:40.221Z,3.13
2022-11-05T13:01:37.108Z,3.30
2022-11-05T13:04:33.813Z,2.90
2022-11-05T13:09:50.357Z,3.80
2022-11-05T13:12:22.386Z,3.25
2022-11-05T13:15:02.166Z,2.70
2022-11-05T13:17:43.474Z,3.08
2022-11-05T13:20:29.084Z,3.35
2022-11-05T13:23:02.505Z,4.28
2022-11-05T13:25:33.518Z,3.25
2022-11-05T13:28:27.223Z,3.42
2022-11-05T13:31:01.572Z,3.55
2022-11-05T13:33:43.344Z,3.30
2022-11-05T13:36:49.521Z,3.67
2022-11-05T13:39:29.701Z,3.93
2022-11-05T13:42:38.113Z,2.97
2022-11-05T13:45:42.292Z,3.40
2022-11-05T13:48:30.822Z,3.45
2022-11-05T13:51:22.834Z,3.83
2022-11-05T13:54:18.897Z,4.03
2022-11-05T13:57:15.473Z,3.80
2022-11-05T14:02:42.868Z,4.05
2022-11-05T14:05:41.417Z,4.20
2022-11-05T14:08:17.106Z,3.83
2022-11-05T14:13:36.579Z,3.60
2022-11-05T14:16:15.902Z,3.78
2022-11-05T14:18:48.025Z,4.20
2022-11-05T14:21:26.902Z,3.38
2022-11-05T14:23:57.145Z,4.70
2022-11-05T14:26:33.249Z,4.00
2022-11-05T14:29:03.218Z,4.57
2022-11-05T14:32:08.256Z,4.07
2022-11-05T14:34:46.563Z,4.13
2022-11-05T14:37:13.451Z,4.63
2022-11-05T14:39:41.410Z,4.15
2022-11-05T14:42:17.152Z,4.28
2022-11-05T14:47:52.730Z,3.47
2022-11-05T14:50:21.706Z,3.97
2022-11-05T14:52:58.652Z,4.15
2022-11-05T14:55:40.438Z,5.10
2022-11-05T14:58:36.999Z,4.07
2022-11-05T15:01:08.549Z,4.00
2022-11-05T15:03:47.223Z,5.28
2022-11-05T15:06:33.659Z,5.43
2022-11-05T15:11:42.481Z,4.35
2022-11-05T15:14:27.747Z,3.78
2022-11-05T15:17:17.804Z,5.07
2022-11-05T15:19:45.845Z,4.45
2022-11-05T15:22:36.713Z,4.53
2022-11-05T15:25:05.847Z,4.63
2022-11-05T15:27:56.685Z,3.47
2022-11-05T15:30:24.541Z,4.25
2022-11-05T15:32:52.443Z,2.88
2022-11-05T15:35:28.020Z,3.15
2022-11-05T15:38:02.143Z,3.50
2022-11-05T15:40:32.308Z,2.92
2022-11-05T15:43:28.485Z,2.97
2022-11-05T15:46:29.941Z,2.95
2022-11-05T15:49:06.667Z,2.72
2022-11-05T15:51:35.633Z,3.40
2022-11-05T15:56:57.171Z,3.38
2022-11-05T15:59:26.714Z,3.08
2022-11-05T16:01:58.124Z,3.85
2022-11-05T16:04:29.297Z,3.05
2022-11-05T16:07:00.939Z,3.65
2022-11-05T16:09:31.473Z,4.75
2022-11-05T16:12:19.860Z,3.20
2022-11-05T16:15:01.401Z,2.88
2022-11-05T16:17:52.975Z,3.55
2022-11-05T16:20:37.039Z,3.78
2022-11-05T16:23:23.333Z,3.30
2022-11-05T16:25:51.013Z,5.20
2022-11-05T16:28:26.316Z,2.40
2022-11-05T16:30:56.993Z,3.47
2022-11-05T16:33:33.687Z,3.95
2022-11-05T16:36:00.857Z,3.47
2022-11-05T16:38:28.039Z,2.72
2022-11-05T16:40:55.067Z,3.28
2022-11-05T16:43:25.671Z,3.88
2022-11-05T16:46:01.340Z,3.55
2022-11-05T16:48:28.761Z,4.03
2022-11-05T16:50:55.870Z,2.78
2022-11-05T16:53:23.090Z,4.00
2022-11-05T16:55:50.035Z,3.10
2022-11-05T16:58:26.588Z,3.08
2022-11-05T17:01:05.719Z,3.13
2022-11-05T17:03:34.612Z,3.13
2022-11-05T17:06:01.725Z,3.55
2022-11-05T17:08:31.738Z,3.30
2022-11-05T17:11:01.611Z,3.53
2022-11-05T17:13:28.682Z,3.25
2022-11-05T17:15:55.838Z,3.15
2022-11-05T17:18:23.359Z,3.05
2022-11-05T17:20:54.764Z,2.83
2022-11-05T17:23:26.807Z,3.17
2022-11-05T17:26:01.217Z,3.00
2022-11-05T17:28:29.310Z,2.88
2022-11-05T17:31:03.357Z,3.95
2022-11-05T17:33:30.669Z,3.45
2022-11-05T17:35:57.944Z,2.47
2022-11-05T17:38:26.890Z,3.25
2022-11-05T17:40:53.886Z,2.90
2022-11-05T17:43:21.161Z,3.22
2022-11-05T17:45:52.071Z,3.15
2022-11-05T17:48:20.974Z,3.03
2022-11-05T17:50:50.149Z,3.30
2022-11-05T17:53:19.323Z,2.75
2022-11-05T17:55:48.139Z,3.20
2022-11-05T17:58:15.454Z,2.67
2022-11-05T18:00:44.056Z,3.22
2022-11-05T18:03:12.568Z,3.38
2022-11-05T18:05:40.682Z,3.50
2022-11-05T18:08:08.678Z,3.28
2022-11-05T18:10:40.684Z,3.63
2022-11-05T18:13:07.999Z,3.88
2022-11-05T18:15:36.420Z,3.15
2022-11-05T18:18:03.570Z,3.63
2022-11-05T18:20:30.577Z,2.97
2022-11-05T18:22:57.650Z,2.60
2022-11-05T18:25:24.686Z,2.90
2022-11-05T18:27:52.373Z,2.75
2022-11-05T18:30:19.675Z,2.90
2022-11-05T18:32:47.879Z,2.67
2022-11-05T18:35:14.899Z,2.25
2022-11-05T18:37:41.989Z,2.85
2022-11-05T18:40:09.918Z,1.85
2022-11-05T18:42:37.434Z,2.45
2022-11-05T18:45:06.691Z,3.03
2022-11-05T18:47:33.971Z,3.90
2022-11-05T18:50:01.758Z,3.60
2022-11-05T18:52:31.516Z,2.70
2022-11-05T18:54:59.107Z,3.38
2022-11-05T18:57:26.843Z,3.85
2022-11-05T18:59:53.791Z,3.60
2022-11-05T19:02:20.815Z,3.40
2022-11-05T19:05:14.049Z,3.50
2022-11-05T19:07:39.208Z,3.13
2022-11-05T19:10:06.979Z,3.25
2022-11-05T19:12:33.878Z,3.53
2022-11-05T19:15:02.855Z,3.35
2022-11-05T19:17:32.495Z,2.97
2022-11-05T19:19:59.634Z,3.75
2022-11-05T19:22:26.655Z,3.50
2022-11-05T19:24:53.811Z,2.95
2022-11-05T19:27:20.713Z,2.45
2022-11-05T19:29:47.600Z,3.05
2022-11-05T19:32:15.263Z,2.95
2022-11-05T19:34:42.146Z,3.05
2022-11-05T19:37:09.508Z,2.40
2022-11-05T19:39:36.735Z,3.40
2022-11-05T19:42:04.718Z,2.90
2022-11-05T19:44:31.933Z,2.95
2022-11-05T19:46:59.240Z,2.88
2022-11-05T19:49:28.128Z,3.47
2022-11-05T19:51:55.229Z,3.10
2022-11-05T19:54:22.272Z,3.28
2022-11-05T19:56:51.869Z,3.22
2022-11-05T19:59:19.050Z,3.05
2022-11-05T20:01:46.184Z,2.78
2022-11-05T20:04:13.408Z,2.88
2022-11-05T20:06:40.775Z,3.08
2022-11-05T20:09:22.502Z,3.15
2022-11-05T20:11:54.553Z,3.35
2022-11-05T20:14:23.552Z,3.17
2022-11-05T20:16:51.091Z,2.78
2022-11-05T20:19:21.778Z,3.28
2022-11-05T20:21:49.228Z,2.65
2022-11-05T20:24:24.302Z,3.28
2022-11-05T20:26:54.827Z,3.05
2022-11-05T20:29:21.993Z,2.85
2022-11-05T20:31:49.970Z,4.13
2022-11-05T20:34:16.946Z,2.92
2022-11-05T20:36:43.929Z,3.70
2022-11-05T20:39:11.964Z,3.42
2022-11-05T20:41:38.970Z,3.35
2022-11-05T20:44:05.950Z,4.38
2022-11-05T20:46:32.979Z,3.90
2022-11-05T20:48:59.860Z,4.32
2022-11-05T20:51:26.937Z,4.10
2022-11-05T20:53:59.916Z,3.10
2022-11-05T20:56:30.626Z,3.00
2022-11-05T20:58:59.712Z,3.70
2022-11-05T21:01:29.443Z,3.78
2022-11-05T21:03:56.933Z,3.72
2022-11-05T21:06:23.933Z,4.13
2022-11-05T21:08:52.280Z,3.17
2022-11-05T21:11:20.451Z,3.83
2022-11-05T21:13:48.255Z,3.58
2022-11-05T21:16:18.765Z,4.05
2022-11-05T21:18:46.693Z,3.58
2022-11-05T21:21:19.707Z,2.78
2022-11-05T21:23:46.814Z,2.97
2022-11-05T21:26:16.701Z,3.58
2022-11-05T21:28:43.716Z,3.90
2022-11-05T21:31:11.173Z,4.15
2022-11-05T21:33:38.349Z,3.10
2022-11-05T21:36:09.116Z,3.90
2022-11-05T21:38:36.719Z,4.35
2022-11-05T21:41:04.527Z,3.58
2022-11-05T21:43:31.625Z,3.53
2022-11-05T21:46:02.982Z,4.47
2022-11-05T21:48:30.877Z,3.40
2022-11-05T21:51:18.218Z,3.17
2022-11-05T21:54:03.761Z,5.55
2022-11-05T21:56:49.260Z,3.85
2022-11-05T21:59:38.784Z,4.00
2022-11-05T22:02:07.140Z,5.03
2022-11-05T22:04:43.851Z,6.53
2022-11-05T22:07:14.282Z,4.00
2022-11-05T22:09:41.436Z,4.13
2022-11-05T22:12:09.319Z,4.80
2022-11-05T22:14:36.886Z,3.45
2022-11-05T22:17:04.249Z,5.20
2022-11-05T22:19:31.310Z,4.28
2022-11-05T22:21:58.210Z,3.88
2022-11-05T22:24:27.953Z,4.22
2022-11-05T22:26:54.877Z,5.30
2022-11-05T22:29:22.021Z,5.32
2022-11-05T22:31:49.070Z,4.50
2022-11-05T22:34:16.000Z,5.18
2022-11-05T22:36:43.000Z,3.17
2022-11-05T22:39:12.158Z,2.88
2022-11-05T22:41:39.577Z,3.53
2022-11-05T22:44:07.043Z,4.57
2022-11-05T22:46:34.018Z,3.97
2022-11-05T22:49:01.101Z,4.60
2022-11-05T22:51:33.737Z,4.03
2022-11-05T22:54:01.786Z,5.15
2022-11-05T22:56:32.043Z,3.58
2022-11-05T22:58:59.825Z,5.07
2022-11-05T23:01:27.875Z,3.50
2022-11-05T23:03:57.057Z,4.82
2022-11-05T23:06:52.910Z,3.80
2022-11-05T23:09:42.742Z,5.18
2022-11-05T23:12:28.189Z,4.80
2022-11-05T23:14:58.239Z,4.88
2022-11-05T23:17:44.831Z,4.63
2022-11-05T23:20:51.592Z,3.58
2022-11-05T23:23:44.808Z,4.32
2022-11-05T23:26:30.464Z,3.15
2022-11-05T23:28:57.340Z,1.55
2022-11-05T23:31:42.829Z,5.10
2022-11-05T23:34:09.727Z,3.80
2022-11-05T23:36:54.953Z,4.38
2022-11-05T23:39:21.839Z,3.90
2022-11-05T23:42:07.254Z,3.63
2022-11-05T23:44:52.747Z,4.07
2022-11-05T23:47:38.024Z,3.28
2022-11-05T23:50:05.496Z,4.23
2022-11-05T23:52:32.642Z,3.72
2022-11-05T23:54:59.800Z,3.83
2022-11-05T23:57:26.740Z,5.20
2022-11-05T23:59:53.596Z,4.53
